sensor_id;sensor_type;location;lat;lon;timestamp;P1;durP1;ratioP1;P2;durP2;ratioP2
14143;SDS011;7152;48.348;10.980;2023-06-04T00:02:22;5.40;;;3.80;;
14143;SDS011;7152;48.348;10.980;2023-06-04T00:04:48;4.67;;;3.57;;
14143;SDS011;7152;48.348;10.980;2023-06-04T00:07:14;5.10;;;4.03;;
14143;SDS011;7152;48.348;10.980;2023-06-04T00:09:39;6.23;;;3.97;;
14143;SDS011;7152;48.348;10.980;2023-06-04T00:12:05;5.50;;;3.70;;
14143;SDS011;7152;48.348;10.980;2023-06-04T00:14:31;4.70;;;3.40;;
14143;SDS011;7152;48.348;10.980;2023-06-04T00:16:57;5.33;;;3.80;;
14143;SDS011;7152;48.348;10.980;2023-06-04T00:19:22;4.80;;;3.30;;
14143;SDS011;7152;48.348;10.980;2023-06-04T00:21:48;7.10;;;3.53;;
14143;SDS011;7152;48.348;10.980;2023-06-04T00:24:13;8.03;;;3.77;;
14143;SDS011;7152;48.348;10.980;2023-06-04T00:26:39;4.87;;;3.90;;
14143;SDS011;7152;48.348;10.980;2023-06-04T00:29:05;5.77;;;4.33;;
14143;SDS011;7152;48.348;10.980;2023-06-04T00:31:30;4.70;;;4.30;;
14143;SDS011;7152;48.348;10.980;2023-06-04T00:33:56;7.90;;;4.30;;
14143;SDS011;7152;48.348;10.980;2023-06-04T00:36:21;5.20;;;3.80;;
14143;SDS011;7152;48.348;10.980;2023-06-04T00:38:47;5.97;;;4.07;;
14143;SDS011;7152;48.348;10.980;2023-06-04T00:41:13;4.43;;;3.93;;
14143;SDS011;7152;48.348;10.980;2023-06-04T00:43:38;3.83;;;3.43;;
14143;SDS011;7152;48.348;10.980;2023-06-04T00:46:05;5.17;;;3.90;;
14143;SDS011;7152;48.348;10.980;2023-06-04T00:48:31;5.37;;;4.00;;
14143;SDS011;7152;48.348;10.980;2023-06-04T00:50:57;4.57;;;3.80;;
14143;SDS011;7152;48.348;10.980;2023-06-04T00:53:23;5.50;;;3.73;;
14143;SDS011;7152;48.348;10.980;2023-06-04T00:55:50;4.07;;;3.33;;
14143;SDS011;7152;48.348;10.980;2023-06-04T00:58:16;4.70;;;3.60;;
14143;SDS011;7152;48.348;10.980;2023-06-04T01:00:43;6.00;;;3.90;;
14143;SDS011;7152;48.348;10.980;2023-06-04T01:03:19;3.87;;;3.40;;
14143;SDS011;7152;48.348;10.980;2023-06-04T01:08:49;4.83;;;3.30;;
14143;SDS011;7152;48.348;10.980;2023-06-04T01:11:30;4.97;;;3.60;;
14143;SDS011;7152;48.348;10.980;2023-06-04T01:13:56;5.37;;;3.67;;
14143;SDS011;7152;48.348;10.980;2023-06-04T01:16:22;4.23;;;3.47;;
14143;SDS011;7152;48.348;10.980;2023-06-04T01:18:48;3.77;;;3.27;;
14143;SDS011;7152;48.348;10.980;2023-06-04T01:21:16;4.80;;;3.30;;
14143;SDS011;7152;48.348;10.980;2023-06-04T01:23:47;4.40;;;3.70;;
14143;SDS011;7152;48.348;10.980;2023-06-04T01:26:23;3.80;;;3.50;;
14143;SDS011;7152;48.348;10.980;2023-06-04T01:28:51;4.20;;;3.53;;
14143;SDS011;7152;48.348;10.980;2023-06-04T01:31:18;4.00;;;3.50;;
14143;SDS011;7152;48.348;10.980;2023-06-04T01:33:48;4.87;;;3.60;;
14143;SDS011;7152;48.348;10.980;2023-06-04T01:36:16;6.97;;;3.20;;
14143;SDS011;7152;48.348;10.980;2023-06-04T01:38:42;3.90;;;3.30;;
14143;SDS011;7152;48.348;10.980;2023-06-04T01:41:07;4.00;;;3.27;;
14143;SDS011;7152;48.348;10.980;2023-06-04T01:43:33;2.97;;;2.77;;
14143;SDS011;7152;48.348;10.980;2023-06-04T01:46:00;5.17;;;3.27;;
14143;SDS011;7152;48.348;10.980;2023-06-04T01:48:26;3.30;;;3.00;;
14143;SDS011;7152;48.348;10.980;2023-06-04T01:50:51;4.23;;;3.27;;
14143;SDS011;7152;48.348;10.980;2023-06-04T01:53:17;4.83;;;3.33;;
14143;SDS011;7152;48.348;10.980;2023-06-04T01:55:43;4.43;;;3.30;;
14143;SDS011;7152;48.348;10.980;2023-06-04T01:58:09;6.03;;;3.30;;
14143;SDS011;7152;48.348;10.980;2023-06-04T02:00:35;3.53;;;3.10;;
14143;SDS011;7152;48.348;10.980;2023-06-04T02:03:00;5.13;;;3.40;;
14143;SDS011;7152;48.348;10.980;2023-06-04T02:05:26;5.80;;;3.50;;
14143;SDS011;7152;48.348;10.980;2023-06-04T02:07:52;5.43;;;3.87;;
14143;SDS011;7152;48.348;10.980;2023-06-04T02:10:18;4.53;;;3.20;;
14143;SDS011;7152;48.348;10.980;2023-06-04T02:15:24;6.30;;;3.20;;
14143;SDS011;7152;48.348;10.980;2023-06-04T02:17:53;5.43;;;3.10;;
14143;SDS011;7152;48.348;10.980;2023-06-04T02:20:24;4.67;;;3.60;;
14143;SDS011;7152;48.348;10.980;2023-06-04T02:22:53;5.47;;;3.17;;
14143;SDS011;7152;48.348;10.980;2023-06-04T02:25:22;4.07;;;3.17;;
14143;SDS011;7152;48.348;10.980;2023-06-04T02:27:48;3.83;;;3.10;;
14143;SDS011;7152;48.348;10.980;2023-06-04T02:30:14;4.73;;;3.50;;
14143;SDS011;7152;48.348;10.980;2023-06-04T02:32:42;3.80;;;3.40;;
14143;SDS011;7152;48.348;10.980;2023-06-04T02:35:09;4.90;;;3.53;;
14143;SDS011;7152;48.348;10.980;2023-06-04T02:37:35;3.90;;;3.13;;
14143;SDS011;7152;48.348;10.980;2023-06-04T02:40:01;4.43;;;3.23;;
14143;SDS011;7152;48.348;10.980;2023-06-04T02:42:27;6.17;;;3.33;;
14143;SDS011;7152;48.348;10.980;2023-06-04T02:44:52;4.50;;;3.20;;
14143;SDS011;7152;48.348;10.980;2023-06-04T02:47:18;3.70;;;2.87;;
14143;SDS011;7152;48.348;10.980;2023-06-04T02:49:44;4.33;;;3.07;;
14143;SDS011;7152;48.348;10.980;2023-06-04T02:52:11;4.10;;;3.53;;
14143;SDS011;7152;48.348;10.980;2023-06-04T02:54:37;4.20;;;3.10;;
14143;SDS011;7152;48.348;10.980;2023-06-04T02:57:03;4.27;;;2.87;;
14143;SDS011;7152;48.348;10.980;2023-06-04T02:59:29;3.43;;;3.10;;
14143;SDS011;7152;48.348;10.980;2023-06-04T03:01:54;4.50;;;2.90;;
14143;SDS011;7152;48.348;10.980;2023-06-04T03:04:20;4.50;;;3.40;;
14143;SDS011;7152;48.348;10.980;2023-06-04T03:06:46;3.77;;;3.33;;
14143;SDS011;7152;48.348;10.980;2023-06-04T03:09:12;5.50;;;3.23;;
14143;SDS011;7152;48.348;10.980;2023-06-04T03:11:38;3.50;;;2.90;;
14143;SDS011;7152;48.348;10.980;2023-06-04T03:14:04;4.30;;;3.13;;
14143;SDS011;7152;48.348;10.980;2023-06-04T03:16:30;3.87;;;3.37;;
14143;SDS011;7152;48.348;10.980;2023-06-04T03:18:55;3.27;;;2.90;;
14143;SDS011;7152;48.348;10.980;2023-06-04T03:21:21;5.13;;;3.00;;
14143;SDS011;7152;48.348;10.980;2023-06-04T03:23:47;4.60;;;3.00;;
14143;SDS011;7152;48.348;10.980;2023-06-04T03:26:13;4.13;;;2.83;;
14143;SDS011;7152;48.348;10.980;2023-06-04T03:28:38;2.50;;;2.30;;
14143;SDS011;7152;48.348;10.980;2023-06-04T03:31:05;3.07;;;2.50;;
14143;SDS011;7152;48.348;10.980;2023-06-04T03:33:31;3.50;;;2.90;;
14143;SDS011;7152;48.348;10.980;2023-06-04T03:35:56;2.63;;;2.43;;
14143;SDS011;7152;48.348;10.980;2023-06-04T03:38:25;3.90;;;2.90;;
14143;SDS011;7152;48.348;10.980;2023-06-04T03:40:51;3.93;;;2.77;;
14143;SDS011;7152;48.348;10.980;2023-06-04T03:43:18;4.73;;;2.80;;
14143;SDS011;7152;48.348;10.980;2023-06-04T03:45:44;3.27;;;2.30;;
14143;SDS011;7152;48.348;10.980;2023-06-04T03:48:10;4.80;;;2.67;;
14143;SDS011;7152;48.348;10.980;2023-06-04T03:50:36;3.90;;;2.50;;
14143;SDS011;7152;48.348;10.980;2023-06-04T03:53:01;4.97;;;2.53;;
14143;SDS011;7152;48.348;10.980;2023-06-04T03:55:29;3.60;;;2.70;;
14143;SDS011;7152;48.348;10.980;2023-06-04T03:57:57;5.13;;;2.70;;
14143;SDS011;7152;48.348;10.980;2023-06-04T04:00:23;2.77;;;2.50;;
14143;SDS011;7152;48.348;10.980;2023-06-04T04:02:49;4.23;;;2.43;;
14143;SDS011;7152;48.348;10.980;2023-06-04T04:05:15;4.60;;;2.87;;
14143;SDS011;7152;48.348;10.980;2023-06-04T04:07:41;3.20;;;2.37;;
14143;SDS011;7152;48.348;10.980;2023-06-04T04:10:06;4.17;;;2.90;;
14143;SDS011;7152;48.348;10.980;2023-06-04T04:12:32;4.27;;;2.27;;
14143;SDS011;7152;48.348;10.980;2023-06-04T04:14:58;3.13;;;2.73;;
14143;SDS011;7152;48.348;10.980;2023-06-04T04:17:24;4.53;;;2.60;;
14143;SDS011;7152;48.348;10.980;2023-06-04T04:19:50;3.07;;;2.53;;
14143;SDS011;7152;48.348;10.980;2023-06-04T04:22:15;5.03;;;2.80;;
14143;SDS011;7152;48.348;10.980;2023-06-04T04:24:45;4.03;;;2.57;;
14143;SDS011;7152;48.348;10.980;2023-06-04T04:27:11;4.43;;;2.60;;
14143;SDS011;7152;48.348;10.980;2023-06-04T04:29:37;3.93;;;2.67;;
14143;SDS011;7152;48.348;10.980;2023-06-04T04:32:03;4.17;;;3.13;;
14143;SDS011;7152;48.348;10.980;2023-06-04T04:34:35;4.80;;;3.30;;
14143;SDS011;7152;48.348;10.980;2023-06-04T04:37:03;3.30;;;2.67;;
14143;SDS011;7152;48.348;10.980;2023-06-04T04:39:33;3.90;;;2.50;;
14143;SDS011;7152;48.348;10.980;2023-06-04T04:42:00;3.47;;;2.47;;
14143;SDS011;7152;48.348;10.980;2023-06-04T04:44:26;4.63;;;2.90;;
14143;SDS011;7152;48.348;10.980;2023-06-04T04:46:51;3.40;;;2.83;;
14143;SDS011;7152;48.348;10.980;2023-06-04T04:49:17;4.27;;;2.93;;
14143;SDS011;7152;48.348;10.980;2023-06-04T04:51:43;4.40;;;2.80;;
14143;SDS011;7152;48.348;10.980;2023-06-04T04:54:08;3.43;;;2.73;;
14143;SDS011;7152;48.348;10.980;2023-06-04T04:56:34;4.73;;;3.23;;
14143;SDS011;7152;48.348;10.980;2023-06-04T04:59:00;2.87;;;2.67;;
14143;SDS011;7152;48.348;10.980;2023-06-04T05:01:26;5.67;;;3.00;;
14143;SDS011;7152;48.348;10.980;2023-06-04T05:03:52;3.87;;;2.87;;
14143;SDS011;7152;48.348;10.980;2023-06-04T05:06:18;6.27;;;3.13;;
14143;SDS011;7152;48.348;10.980;2023-06-04T05:08:44;5.00;;;3.10;;
14143;SDS011;7152;48.348;10.980;2023-06-04T05:11:10;3.70;;;2.70;;
14143;SDS011;7152;48.348;10.980;2023-06-04T05:13:36;3.00;;;2.57;;
14143;SDS011;7152;48.348;10.980;2023-06-04T05:16:01;4.67;;;3.00;;
14143;SDS011;7152;48.348;10.980;2023-06-04T05:18:36;4.37;;;2.60;;
14143;SDS011;7152;48.348;10.980;2023-06-04T05:21:05;3.73;;;2.93;;
14143;SDS011;7152;48.348;10.980;2023-06-04T05:23:32;3.70;;;2.73;;
14143;SDS011;7152;48.348;10.980;2023-06-04T05:25:59;3.90;;;2.77;;
14143;SDS011;7152;48.348;10.980;2023-06-04T05:28:26;3.43;;;2.43;;
14143;SDS011;7152;48.348;10.980;2023-06-04T05:30:52;5.07;;;3.13;;
14143;SDS011;7152;48.348;10.980;2023-06-04T05:33:23;4.13;;;2.97;;
14143;SDS011;7152;48.348;10.980;2023-06-04T05:35:49;3.30;;;2.70;;
14143;SDS011;7152;48.348;10.980;2023-06-04T05:38:16;4.17;;;3.03;;
14143;SDS011;7152;48.348;10.980;2023-06-04T05:40:44;6.97;;;3.07;;
14143;SDS011;7152;48.348;10.980;2023-06-04T05:43:10;3.50;;;3.20;;
14143;SDS011;7152;48.348;10.980;2023-06-04T05:45:37;4.30;;;3.30;;
14143;SDS011;7152;48.348;10.980;2023-06-04T05:48:03;3.40;;;3.10;;
14143;SDS011;7152;48.348;10.980;2023-06-04T05:50:29;4.87;;;3.20;;
14143;SDS011;7152;48.348;10.980;2023-06-04T05:52:55;4.33;;;2.97;;
14143;SDS011;7152;48.348;10.980;2023-06-04T05:55:21;3.30;;;3.00;;
14143;SDS011;7152;48.348;10.980;2023-06-04T05:57:47;3.10;;;2.80;;
14143;SDS011;7152;48.348;10.980;2023-06-04T06:00:13;3.90;;;3.20;;
14143;SDS011;7152;48.348;10.980;2023-06-04T06:02:39;4.23;;;3.57;;
14143;SDS011;7152;48.348;10.980;2023-06-04T06:05:05;5.03;;;3.30;;
14143;SDS011;7152;48.348;10.980;2023-06-04T06:07:34;3.87;;;3.43;;
14143;SDS011;7152;48.348;10.980;2023-06-04T06:10:01;4.20;;;3.00;;
14143;SDS011;7152;48.348;10.980;2023-06-04T06:12:27;3.53;;;3.00;;
14143;SDS011;7152;48.348;10.980;2023-06-04T06:14:53;3.20;;;3.00;;
14143;SDS011;7152;48.348;10.980;2023-06-04T06:17:18;3.83;;;3.07;;
14143;SDS011;7152;48.348;10.980;2023-06-04T06:19:44;3.47;;;3.13;;
14143;SDS011;7152;48.348;10.980;2023-06-04T06:22:10;4.50;;;3.20;;
14143;SDS011;7152;48.348;10.980;2023-06-04T06:24:36;4.37;;;3.10;;
14143;SDS011;7152;48.348;10.980;2023-06-04T06:27:02;6.37;;;3.43;;
14143;SDS011;7152;48.348;10.980;2023-06-04T06:29:28;4.37;;;3.30;;
14143;SDS011;7152;48.348;10.980;2023-06-04T06:31:53;3.93;;;3.27;;
14143;SDS011;7152;48.348;10.980;2023-06-04T06:34:20;5.53;;;3.43;;
14143;SDS011;7152;48.348;10.980;2023-06-04T06:36:45;3.50;;;3.07;;
14143;SDS011;7152;48.348;10.980;2023-06-04T06:39:11;6.13;;;3.30;;
14143;SDS011;7152;48.348;10.980;2023-06-04T06:41:37;4.10;;;2.80;;
14143;SDS011;7152;48.348;10.980;2023-06-04T06:44:03;5.00;;;2.93;;
14143;SDS011;7152;48.348;10.980;2023-06-04T06:46:29;3.73;;;3.37;;
14143;SDS011;7152;48.348;10.980;2023-06-04T06:48:55;3.73;;;2.80;;
14143;SDS011;7152;48.348;10.980;2023-06-04T06:51:21;3.40;;;3.10;;
14143;SDS011;7152;48.348;10.980;2023-06-04T06:53:48;4.90;;;3.03;;
14143;SDS011;7152;48.348;10.980;2023-06-04T06:56:14;4.80;;;3.27;;
14143;SDS011;7152;48.348;10.980;2023-06-04T06:58:40;5.33;;;3.30;;
14143;SDS011;7152;48.348;10.980;2023-06-04T07:01:06;4.23;;;3.03;;
14143;SDS011;7152;48.348;10.980;2023-06-04T07:03:32;5.60;;;3.20;;
14143;SDS011;7152;48.348;10.980;2023-06-04T07:05:57;5.13;;;3.10;;
14143;SDS011;7152;48.348;10.980;2023-06-04T07:08:23;4.63;;;3.00;;
14143;SDS011;7152;48.348;10.980;2023-06-04T07:10:49;3.73;;;3.03;;
14143;SDS011;7152;48.348;10.980;2023-06-04T07:13:14;7.90;;;3.53;;
14143;SDS011;7152;48.348;10.980;2023-06-04T07:15:41;4.23;;;3.13;;
14143;SDS011;7152;48.348;10.980;2023-06-04T07:18:06;4.93;;;3.17;;
14143;SDS011;7152;48.348;10.980;2023-06-04T07:20:32;3.30;;;2.60;;
14143;SDS011;7152;48.348;10.980;2023-06-04T07:22:57;4.50;;;2.80;;
14143;SDS011;7152;48.348;10.980;2023-06-04T07:25:23;3.47;;;2.80;;
14143;SDS011;7152;48.348;10.980;2023-06-04T07:27:50;6.63;;;2.70;;
14143;SDS011;7152;48.348;10.980;2023-06-04T07:30:16;5.23;;;2.90;;
14143;SDS011;7152;48.348;10.980;2023-06-04T07:32:45;3.17;;;2.77;;
14143;SDS011;7152;48.348;10.980;2023-06-04T07:35:12;4.40;;;2.50;;
14143;SDS011;7152;48.348;10.980;2023-06-04T07:37:37;3.80;;;2.60;;
14143;SDS011;7152;48.348;10.980;2023-06-04T07:40:03;5.33;;;3.27;;
14143;SDS011;7152;48.348;10.980;2023-06-04T07:42:29;3.53;;;2.67;;
14143;SDS011;7152;48.348;10.980;2023-06-04T07:44:55;2.87;;;2.53;;
14143;SDS011;7152;48.348;10.980;2023-06-04T07:47:21;3.30;;;2.53;;
14143;SDS011;7152;48.348;10.980;2023-06-04T07:49:47;4.80;;;2.77;;
14143;SDS011;7152;48.348;10.980;2023-06-04T07:52:12;5.47;;;2.60;;
14143;SDS011;7152;48.348;10.980;2023-06-04T07:54:39;3.73;;;2.50;;
14143;SDS011;7152;48.348;10.980;2023-06-04T07:57:06;3.23;;;2.50;;
14143;SDS011;7152;48.348;10.980;2023-06-04T07:59:32;3.27;;;2.97;;
14143;SDS011;7152;48.348;10.980;2023-06-04T08:01:58;3.30;;;2.47;;
14143;SDS011;7152;48.348;10.980;2023-06-04T08:04:23;3.23;;;2.63;;
14143;SDS011;7152;48.348;10.980;2023-06-04T08:06:49;4.70;;;2.47;;
14143;SDS011;7152;48.348;10.980;2023-06-04T08:09:15;4.27;;;2.53;;
14143;SDS011;7152;48.348;10.980;2023-06-04T08:11:41;3.37;;;2.20;;
14143;SDS011;7152;48.348;10.980;2023-06-04T08:14:08;3.23;;;2.80;;
14143;SDS011;7152;48.348;10.980;2023-06-04T08:16:33;3.40;;;2.23;;
14143;SDS011;7152;48.348;10.980;2023-06-04T08:18:59;2.57;;;2.30;;
14143;SDS011;7152;48.348;10.980;2023-06-04T08:21:25;3.93;;;2.43;;
14143;SDS011;7152;48.348;10.980;2023-06-04T08:23:51;6.10;;;2.97;;
14143;SDS011;7152;48.348;10.980;2023-06-04T08:26:17;5.03;;;2.40;;
14143;SDS011;7152;48.348;10.980;2023-06-04T08:28:44;3.17;;;2.30;;
14143;SDS011;7152;48.348;10.980;2023-06-04T08:31:12;3.80;;;2.63;;
14143;SDS011;7152;48.348;10.980;2023-06-04T08:33:38;3.00;;;2.53;;
14143;SDS011;7152;48.348;10.980;2023-06-04T08:36:04;3.50;;;2.80;;
14143;SDS011;7152;48.348;10.980;2023-06-04T08:38:30;3.57;;;2.43;;
14143;SDS011;7152;48.348;10.980;2023-06-04T08:40:56;3.80;;;2.60;;
14143;SDS011;7152;48.348;10.980;2023-06-04T08:43:35;3.50;;;2.60;;
14143;SDS011;7152;48.348;10.980;2023-06-04T08:46:04;3.00;;;2.30;;
14143;SDS011;7152;48.348;10.980;2023-06-04T08:48:33;3.03;;;2.30;;
14143;SDS011;7152;48.348;10.980;2023-06-04T08:51:00;2.83;;;2.53;;
14143;SDS011;7152;48.348;10.980;2023-06-04T08:53:27;3.50;;;2.27;;
14143;SDS011;7152;48.348;10.980;2023-06-04T08:55:56;2.73;;;2.47;;
14143;SDS011;7152;48.348;10.980;2023-06-04T08:58:21;3.27;;;2.40;;
14143;SDS011;7152;48.348;10.980;2023-06-04T09:00:49;2.50;;;2.30;;
14143;SDS011;7152;48.348;10.980;2023-06-04T09:03:15;3.00;;;2.23;;
14143;SDS011;7152;48.348;10.980;2023-06-04T09:05:43;5.73;;;2.67;;
14143;SDS011;7152;48.348;10.980;2023-06-04T09:08:12;3.67;;;2.40;;
14143;SDS011;7152;48.348;10.980;2023-06-04T09:10:40;4.43;;;2.60;;
14143;SDS011;7152;48.348;10.980;2023-06-04T09:13:07;3.42;;;2.55;;
14143;SDS011;7152;48.348;10.980;2023-06-04T09:15:34;2.87;;;2.03;;
14143;SDS011;7152;48.348;10.980;2023-06-04T09:18:00;3.03;;;2.53;;
14143;SDS011;7152;48.348;10.980;2023-06-04T09:20:26;2.50;;;2.08;;
14143;SDS011;7152;48.348;10.980;2023-06-04T09:22:53;3.63;;;2.30;;
14143;SDS011;7152;48.348;10.980;2023-06-04T09:25:19;4.53;;;2.57;;
14143;SDS011;7152;48.348;10.980;2023-06-04T09:27:50;3.28;;;2.58;;
14143;SDS011;7152;48.348;10.980;2023-06-04T09:30:17;3.58;;;2.38;;
14143;SDS011;7152;48.348;10.980;2023-06-04T09:32:43;2.90;;;2.70;;
14143;SDS011;7152;48.348;10.980;2023-06-04T09:35:09;2.50;;;2.30;;
14143;SDS011;7152;48.348;10.980;2023-06-04T09:37:51;2.88;;;2.30;;
14143;SDS011;7152;48.348;10.980;2023-06-04T09:40:18;4.80;;;2.67;;
14143;SDS011;7152;48.348;10.980;2023-06-04T09:42:47;3.28;;;2.33;;
14143;SDS011;7152;48.348;10.980;2023-06-04T09:45:27;2.70;;;2.28;;
14143;SDS011;7152;48.348;10.980;2023-06-04T09:47:57;5.30;;;2.28;;
14143;SDS011;7152;48.348;10.980;2023-06-04T09:50:27;4.22;;;2.38;;
14143;SDS011;7152;48.348;10.980;2023-06-04T09:52:58;3.28;;;2.30;;
14143;SDS011;7152;48.348;10.980;2023-06-04T09:55:24;4.10;;;2.55;;
14143;SDS011;7152;48.348;10.980;2023-06-04T09:57:50;3.15;;;2.40;;
14143;SDS011;7152;48.348;10.980;2023-06-04T10:00:17;4.72;;;2.65;;
14143;SDS011;7152;48.348;10.980;2023-06-04T10:02:45;4.30;;;2.58;;
14143;SDS011;7152;48.348;10.980;2023-06-04T10:05:13;4.93;;;2.63;;
14143;SDS011;7152;48.348;10.980;2023-06-04T10:07:44;3.80;;;2.53;;
14143;SDS011;7152;48.348;10.980;2023-06-04T10:10:11;3.65;;;2.78;;
14143;SDS011;7152;48.348;10.980;2023-06-04T10:12:41;2.55;;;2.35;;
14143;SDS011;7152;48.348;10.980;2023-06-04T10:15:10;3.00;;;2.60;;
14143;SDS011;7152;48.348;10.980;2023-06-04T10:17:37;5.18;;;3.05;;
14143;SDS011;7152;48.348;10.980;2023-06-04T10:20:04;6.25;;;3.08;;
14143;SDS011;7152;48.348;10.980;2023-06-04T10:22:33;3.15;;;2.70;;
14143;SDS011;7152;48.348;10.980;2023-06-04T10:24:59;4.38;;;2.70;;
14143;SDS011;7152;48.348;10.980;2023-06-04T10:27:25;4.22;;;2.80;;
14143;SDS011;7152;48.348;10.980;2023-06-04T10:29:51;3.25;;;2.90;;
14143;SDS011;7152;48.348;10.980;2023-06-04T10:32:17;4.28;;;3.00;;
14143;SDS011;7152;48.348;10.980;2023-06-04T10:34:43;3.83;;;2.92;;
14143;SDS011;7152;48.348;10.980;2023-06-04T10:37:22;3.75;;;3.10;;
14143;SDS011;7152;48.348;10.980;2023-06-04T10:39:52;4.32;;;3.33;;
14143;SDS011;7152;48.348;10.980;2023-06-04T10:42:18;4.80;;;3.30;;
14143;SDS011;7152;48.348;10.980;2023-06-04T10:44:46;5.32;;;3.05;;
14143;SDS011;7152;48.348;10.980;2023-06-04T10:49:45;4.85;;;2.80;;
14143;SDS011;7152;48.348;10.980;2023-06-04T10:52:11;3.92;;;3.17;;
14143;SDS011;7152;48.348;10.980;2023-06-04T10:54:37;3.08;;;2.78;;
14143;SDS011;7152;48.348;10.980;2023-06-04T10:57:12;3.17;;;2.88;;
14143;SDS011;7152;48.348;10.980;2023-06-04T10:59:39;4.40;;;3.17;;
14143;SDS011;7152;48.348;10.980;2023-06-04T11:02:05;3.88;;;2.85;;
14143;SDS011;7152;48.348;10.980;2023-06-04T11:04:31;3.33;;;2.75;;
14143;SDS011;7152;48.348;10.980;2023-06-04T11:07:00;4.13;;;2.60;;
14143;SDS011;7152;48.348;10.980;2023-06-04T11:09:33;3.83;;;3.00;;
14143;SDS011;7152;48.348;10.980;2023-06-04T11:11:59;3.05;;;2.75;;
14143;SDS011;7152;48.348;10.980;2023-06-04T11:14:26;4.45;;;3.17;;
14143;SDS011;7152;48.348;10.980;2023-06-04T11:16:52;4.03;;;3.13;;
14143;SDS011;7152;48.348;10.980;2023-06-04T11:19:17;6.10;;;2.85;;
14143;SDS011;7152;48.348;10.980;2023-06-04T11:21:43;3.13;;;2.85;;
14143;SDS011;7152;48.348;10.980;2023-06-04T11:24:11;3.92;;;3.03;;
14143;SDS011;7152;48.348;10.980;2023-06-04T11:26:37;3.92;;;3.05;;
14143;SDS011;7152;48.348;10.980;2023-06-04T11:29:06;3.30;;;3.00;;
14143;SDS011;7152;48.348;10.980;2023-06-04T11:34:23;3.47;;;3.15;;
14143;SDS011;7152;48.348;10.980;2023-06-04T11:36:50;3.00;;;2.63;;
14143;SDS011;7152;48.348;10.980;2023-06-04T11:39:18;3.30;;;3.00;;
14143;SDS011;7152;48.348;10.980;2023-06-04T11:41:44;4.30;;;2.83;;
14143;SDS011;7152;48.348;10.980;2023-06-04T11:44:11;4.15;;;3.20;;
14143;SDS011;7152;48.348;10.980;2023-06-04T11:46:41;2.97;;;2.70;;
14143;SDS011;7152;48.348;10.980;2023-06-04T11:49:16;4.15;;;3.08;;
14143;SDS011;7152;48.348;10.980;2023-06-04T11:51:49;4.05;;;2.78;;
14143;SDS011;7152;48.348;10.980;2023-06-04T11:54:16;3.25;;;2.60;;
14143;SDS011;7152;48.348;10.980;2023-06-04T11:56:43;3.60;;;2.92;;
14143;SDS011;7152;48.348;10.980;2023-06-04T11:59:13;2.80;;;2.55;;
14143;SDS011;7152;48.348;10.980;2023-06-04T12:01:46;4.93;;;3.10;;
14143;SDS011;7152;48.348;10.980;2023-06-04T12:06:38;4.47;;;3.13;;
14143;SDS011;7152;48.348;10.980;2023-06-04T12:09:19;2.80;;;2.60;;
14143;SDS011;7152;48.348;10.980;2023-06-04T12:11:46;4.32;;;3.05;;
14143;SDS011;7152;48.348;10.980;2023-06-04T12:14:15;4.72;;;2.78;;
14143;SDS011;7152;48.348;10.980;2023-06-04T12:16:43;6.15;;;3.10;;
14143;SDS011;7152;48.348;10.980;2023-06-04T12:19:09;4.80;;;3.00;;
14143;SDS011;7152;48.348;10.980;2023-06-04T12:21:37;3.33;;;2.95;;
14143;SDS011;7152;48.348;10.980;2023-06-04T12:26:36;3.67;;;2.83;;
14143;SDS011;7152;48.348;10.980;2023-06-04T12:29:11;4.03;;;2.88;;
14143;SDS011;7152;48.348;10.980;2023-06-04T12:31:43;3.15;;;2.90;;
14143;SDS011;7152;48.348;10.980;2023-06-04T12:34:11;3.63;;;3.33;;
14143;SDS011;7152;48.348;10.980;2023-06-04T12:36:37;3.55;;;3.25;;
14143;SDS011;7152;48.348;10.980;2023-06-04T12:39:04;3.72;;;3.10;;
14143;SDS011;7152;48.348;10.980;2023-06-04T12:41:30;4.25;;;3.20;;
14143;SDS011;7152;48.348;10.980;2023-06-04T12:43:58;3.72;;;3.28;;
14143;SDS011;7152;48.348;10.980;2023-06-04T12:46:24;3.30;;;2.95;;
14143;SDS011;7152;48.348;10.980;2023-06-04T12:48:50;3.03;;;2.72;;
14143;SDS011;7152;48.348;10.980;2023-06-04T12:51:17;5.18;;;3.50;;
14143;SDS011;7152;48.348;10.980;2023-06-04T12:53:43;3.63;;;3.33;;
14143;SDS011;7152;48.348;10.980;2023-06-04T12:56:10;4.68;;;3.25;;
14143;SDS011;7152;48.348;10.980;2023-06-04T12:58:36;3.25;;;2.88;;
14143;SDS011;7152;48.348;10.980;2023-06-04T13:01:01;3.90;;;3.28;;
14143;SDS011;7152;48.348;10.980;2023-06-04T13:03:29;3.13;;;2.83;;
14143;SDS011;7152;48.348;10.980;2023-06-04T13:05:55;4.13;;;3.72;;
14143;SDS011;7152;48.348;10.980;2023-06-04T13:08:21;5.22;;;3.72;;
14143;SDS011;7152;48.348;10.980;2023-06-04T13:10:47;3.35;;;3.03;;
14143;SDS011;7152;48.348;10.980;2023-06-04T13:13:13;4.93;;;3.40;;
14143;SDS011;7152;48.348;10.980;2023-06-04T13:15:43;4.97;;;3.25;;
14143;SDS011;7152;48.348;10.980;2023-06-04T13:18:09;4.75;;;3.63;;
14143;SDS011;7152;48.348;10.980;2023-06-04T13:20:39;4.35;;;3.60;;
14143;SDS011;7152;48.348;10.980;2023-06-04T13:23:06;3.75;;;3.45;;
14143;SDS011;7152;48.348;10.980;2023-06-04T13:25:31;3.92;;;2.90;;
14143;SDS011;7152;48.348;10.980;2023-06-04T13:27:58;4.13;;;3.60;;
14143;SDS011;7152;48.348;10.980;2023-06-04T13:30:24;3.20;;;2.90;;
14143;SDS011;7152;48.348;10.980;2023-06-04T13:32:49;4.15;;;3.20;;
14143;SDS011;7152;48.348;10.980;2023-06-04T13:35:15;3.55;;;2.88;;
14143;SDS011;7152;48.348;10.980;2023-06-04T13:37:41;3.22;;;2.67;;
14143;SDS011;7152;48.348;10.980;2023-06-04T13:40:06;4.13;;;3.17;;
14143;SDS011;7152;48.348;10.980;2023-06-04T13:42:33;5.13;;;3.05;;
14143;SDS011;7152;48.348;10.980;2023-06-04T13:44:58;4.82;;;2.90;;
14143;SDS011;7152;48.348;10.980;2023-06-04T13:47:24;3.50;;;2.83;;
14143;SDS011;7152;48.348;10.980;2023-06-04T13:49:50;3.35;;;2.70;;
14143;SDS011;7152;48.348;10.980;2023-06-04T13:52:16;3.38;;;2.95;;
14143;SDS011;7152;48.348;10.980;2023-06-04T13:54:42;5.70;;;3.60;;
14143;SDS011;7152;48.348;10.980;2023-06-04T13:57:08;3.15;;;2.85;;
14143;SDS011;7152;48.348;10.980;2023-06-04T13:59:39;3.97;;;2.78;;
14143;SDS011;7152;48.348;10.980;2023-06-04T14:02:06;5.05;;;3.38;;
14143;SDS011;7152;48.348;10.980;2023-06-04T14:04:31;3.33;;;2.88;;
14143;SDS011;7152;48.348;10.980;2023-06-04T14:06:57;3.78;;;3.42;;
14143;SDS011;7152;48.348;10.980;2023-06-04T14:09:23;3.60;;;3.08;;
14143;SDS011;7152;48.348;10.980;2023-06-04T14:11:48;3.85;;;2.90;;
14143;SDS011;7152;48.348;10.980;2023-06-04T14:14:16;4.45;;;3.28;;
14143;SDS011;7152;48.348;10.980;2023-06-04T14:16:42;3.78;;;2.83;;
14143;SDS011;7152;48.348;10.980;2023-06-04T14:19:09;3.55;;;2.90;;
14143;SDS011;7152;48.348;10.980;2023-06-04T14:21:35;3.60;;;3.30;;
14143;SDS011;7152;48.348;10.980;2023-06-04T14:24:01;3.38;;;3.03;;
14143;SDS011;7152;48.348;10.980;2023-06-04T14:26:27;5.10;;;2.92;;
14143;SDS011;7152;48.348;10.980;2023-06-04T14:28:53;3.10;;;2.90;;
14143;SDS011;7152;48.348;10.980;2023-06-04T14:31:19;3.40;;;3.10;;
14143;SDS011;7152;48.348;10.980;2023-06-04T14:33:45;3.80;;;3.47;;
14143;SDS011;7152;48.348;10.980;2023-06-04T14:36:10;3.60;;;3.28;;
14143;SDS011;7152;48.348;10.980;2023-06-04T14:38:36;4.15;;;3.50;;
14143;SDS011;7152;48.348;10.980;2023-06-04T14:41:02;3.47;;;3.17;;
14143;SDS011;7152;48.348;10.980;2023-06-04T14:43:28;4.45;;;2.90;;
14143;SDS011;7152;48.348;10.980;2023-06-04T14:45:53;3.28;;;2.97;;
14143;SDS011;7152;48.348;10.980;2023-06-04T14:48:19;3.47;;;3.17;;
14143;SDS011;7152;48.348;10.980;2023-06-04T14:50:45;3.50;;;3.20;;
14143;SDS011;7152;48.348;10.980;2023-06-04T14:53:12;3.25;;;2.95;;
14143;SDS011;7152;48.348;10.980;2023-06-04T14:55:37;3.65;;;3.25;;
14143;SDS011;7152;48.348;10.980;2023-06-04T14:58:03;3.13;;;2.85;;
14143;SDS011;7152;48.348;10.980;2023-06-04T15:00:29;3.80;;;2.78;;
14143;SDS011;7152;48.348;10.980;2023-06-04T15:02:55;3.25;;;2.92;;